createdAt,value
2023-03-12T00:00:08.647Z,-1.54
2023-03-12T00:02:36.526Z,-1.57
2023-03-12T00:05:04.786Z,-1.60
2023-03-12T00:07:32.424Z,-1.64
2023-03-12T00:10:00.027Z,-1.64
2023-03-12T00:12:27.670Z,-1.58
2023-03-12T00:14:55.317Z,-1.63
2023-03-12T00:17:24.356Z,-1.52
2023-03-12T00:19:53.461Z,-1.55
2023-03-12T00:22:22.890Z,-1.53
2023-03-12T00:24:52.247Z,-1.42
2023-03-12T00:27:20.437Z,-1.31
2023-03-12T00:29:48.290Z,-1.26
2023-03-12T00:32:16.426Z,-1.32
2023-03-12T00:34:45.428Z,-1.37
2023-03-12T00:37:13.363Z,-1.27
2023-03-12T00:39:41.041Z,-1.35
2023-03-12T00:42:08.943Z,-1.39
2023-03-12T00:44:36.628Z,-1.45
2023-03-12T00:47:04.579Z,-1.43
2023-03-12T00:49:32.369Z,-1.44
2023-03-12T00:52:01.371Z,-1.52
2023-03-12T00:54:29.123Z,-1.54
2023-03-12T00:56:56.788Z,-1.58
2023-03-12T00:59:24.516Z,-1.57
2023-03-12T01:01:52.166Z,-1.62
2023-03-12T01:04:19.897Z,-1.56
2023-03-12T01:06:47.596Z,-1.50
2023-03-12T01:09:16.831Z,-1.50
2023-03-12T01:11:44.775Z,-1.42
2023-03-12T01:14:12.495Z,-1.34
2023-03-12T01:16:40.217Z,-1.39
2023-03-12T01:19:08.138Z,-1.19
2023-03-12T01:21:35.807Z,-1.11
2023-03-12T01:24:03.604Z,-0.88
2023-03-12T01:26:32.621Z,-0.81
2023-03-12T01:29:00.393Z,-0.76
2023-03-12T01:31:28.416Z,-0.68
2023-03-12T01:33:56.351Z,-0.65
2023-03-12T01:36:26.041Z,-0.75
2023-03-12T01:38:55.067Z,-0.67
2023-03-12T01:41:24.291Z,-0.56
2023-03-12T01:43:53.809Z,-0.58
2023-03-12T01:46:25.909Z,-0.68
2023-03-12T01:48:58.551Z,-0.56
2023-03-12T01:51:30.016Z,-0.57
2023-03-12T01:54:01.016Z,-0.63
2023-03-12T01:56:33.031Z,-0.60
2023-03-12T01:59:09.146Z,-0.62
2023-03-12T02:01:36.975Z,-0.59
2023-03-12T02:04:05.049Z,-0.81
2023-03-12T02:06:38.743Z,-0.65
2023-03-12T02:09:08.307Z,-0.52
2023-03-12T02:11:36.165Z,-0.65
2023-03-12T02:14:05.267Z,-0.60
2023-03-12T02:16:33.513Z,-0.49
2023-03-12T02:19:05.642Z,-0.36
2023-03-12T02:21:36.188Z,-0.21
2023-03-12T02:24:09.340Z,-0.22
2023-03-12T02:26:40.055Z,-0.18
2023-03-12T02:29:09.893Z,-0.05
2023-03-12T02:31:41.789Z,-0.07
2023-03-12T02:34:09.600Z,-0.09
2023-03-12T02:36:37.736Z,-0.02
2023-03-12T02:39:06.636Z,-0.08
2023-03-12T02:41:37.885Z,-0.09
2023-03-12T02:44:11.176Z,0.09
2023-03-12T02:46:41.822Z,0.16
2023-03-12T02:49:11.847Z,0.20
2023-03-12T02:51:39.457Z,0.11
2023-03-12T02:54:07.636Z,0.18
2023-03-12T02:56:36.027Z,0.18
2023-03-12T02:59:04.826Z,0.26
2023-03-12T03:01:37.173Z,0.30
2023-03-12T03:04:08.348Z,0.12
2023-03-12T03:06:38.655Z,0.26
2023-03-12T03:09:06.569Z,0.35
2023-03-12T03:11:34.367Z,0.29
2023-03-12T03:14:06.885Z,0.22
2023-03-12T03:16:35.472Z,0.25
2023-03-12T03:19:04.690Z,0.28
2023-03-12T03:21:32.777Z,0.42
2023-03-12T03:24:00.525Z,0.48
2023-03-12T03:26:28.466Z,0.56
2023-03-12T03:28:56.380Z,0.65
2023-03-12T03:31:24.157Z,0.64
2023-03-12T03:33:52.265Z,0.69
2023-03-12T03:36:23.169Z,0.71
2023-03-12T03:38:58.900Z,0.64
2023-03-12T03:41:26.998Z,0.69
2023-03-12T03:43:58.605Z,0.65
2023-03-12T03:46:27.620Z,0.73
2023-03-12T03:49:01.309Z,0.69
2023-03-12T03:51:31.581Z,0.77
2023-03-12T03:54:05.062Z,0.77
2023-03-12T03:56:32.976Z,0.90
2023-03-12T03:59:03.079Z,0.80
2023-03-12T04:01:32.169Z,0.77
2023-03-12T04:04:01.608Z,0.78
2023-03-12T04:06:32.453Z,0.69
2023-03-12T04:09:00.497Z,0.66
2023-03-12T04:11:30.124Z,0.58
2023-03-12T04:14:04.378Z,0.57
2023-03-12T04:16:35.152Z,0.65
2023-03-12T04:19:03.798Z,0.33
2023-03-12T04:21:33.003Z,0.60
2023-03-12T04:24:00.688Z,0.51
2023-03-12T04:26:32.316Z,0.62
2023-03-12T04:29:01.267Z,0.47
2023-03-12T04:31:29.848Z,0.55
2023-03-12T04:33:57.547Z,0.71
2023-03-12T04:36:26.232Z,0.80
2023-03-12T04:38:57.415Z,0.74
2023-03-12T04:41:29.964Z,0.93
2023-03-12T04:44:14.177Z,0.96
2023-03-12T04:46:43.700Z,0.95
2023-03-12T04:49:14.860Z,1.02
2023-03-12T04:51:43.652Z,1.10
2023-03-12T04:54:12.678Z,0.97
2023-03-12T04:56:42.209Z,1.26
2023-03-12T04:59:10.654Z,1.33
2023-03-12T05:01:39.064Z,1.30
2023-03-12T05:04:13.374Z,1.28
2023-03-12T05:06:41.126Z,1.26
2023-03-12T05:09:08.914Z,1.45
2023-03-12T05:11:39.935Z,1.52
2023-03-12T05:14:10.143Z,1.51
2023-03-12T05:16:38.674Z,1.67
2023-03-12T05:19:06.945Z,1.38
2023-03-12T05:21:34.896Z,1.52
2023-03-12T05:24:02.583Z,1.34
2023-03-12T05:26:32.967Z,1.50
2023-03-12T05:29:11.944Z,1.62
2023-03-12T05:31:39.734Z,1.58
2023-03-12T05:34:09.123Z,1.48
2023-03-12T05:36:39.844Z,1.61
2023-03-12T05:39:08.204Z,1.47
2023-03-12T05:41:36.383Z,1.33
2023-03-12T05:44:15.956Z,1.52
2023-03-12T05:46:45.617Z,1.34
2023-03-12T05:49:13.266Z,1.61
2023-03-12T05:51:41.766Z,1.51
2023-03-12T05:54:10.033Z,1.65
2023-03-12T05:56:38.471Z,1.77
2023-03-12T05:59:07.502Z,1.87
2023-03-12T06:01:36.557Z,1.64
2023-03-12T06:04:06.242Z,1.90
2023-03-12T06:06:35.555Z,2.03
2023-03-12T06:09:03.853Z,2.12
2023-03-12T06:11:33.746Z,2.10
2023-03-12T06:14:01.729Z,2.03
2023-03-12T06:16:30.574Z,1.86
2023-03-12T06:19:01.908Z,1.76
2023-03-12T06:21:31.807Z,1.55
2023-03-12T06:24:01.177Z,1.62
2023-03-12T06:26:40.386Z,1.68
2023-03-12T06:29:08.374Z,1.55
2023-03-12T06:31:38.729Z,1.57
2023-03-12T06:34:08.234Z,1.52
2023-03-12T06:36:35.887Z,1.48
2023-03-12T06:39:06.144Z,1.55
2023-03-12T06:41:33.822Z,1.65
2023-03-12T06:44:03.600Z,1.59
2023-03-12T06:46:31.300Z,1.67
2023-03-12T06:48:59.088Z,1.70
2023-03-12T06:51:28.195Z,1.75
2023-03-12T06:53:55.851Z,1.76
2023-03-12T06:56:23.565Z,1.94
2023-03-12T06:58:51.167Z,2.00
2023-03-12T07:01:18.804Z,2.06
2023-03-12T07:03:46.640Z,2.01
2023-03-12T07:06:15.725Z,2.10
2023-03-12T07:08:44.827Z,2.11
2023-03-12T07:11:13.513Z,2.21
2023-03-12T07:13:41.658Z,2.29
2023-03-12T07:16:09.895Z,2.30
2023-03-12T07:18:37.698Z,2.26
2023-03-12T07:21:06.116Z,2.24
2023-03-12T07:23:33.802Z,1.92
2023-03-12T07:26:05.452Z,2.02
2023-03-12T07:28:33.118Z,2.14
2023-03-12T07:31:02.430Z,2.24
2023-03-12T07:33:30.193Z,1.98
2023-03-12T07:35:58.107Z,2.03
2023-03-12T07:38:27.259Z,1.77
2023-03-12T07:40:56.291Z,2.12
2023-03-12T07:43:25.883Z,2.15
2023-03-12T07:45:55.297Z,2.15
2023-03-12T07:48:22.983Z,2.31
2023-03-12T07:50:50.955Z,2.38
2023-03-12T07:53:18.810Z,2.39
2023-03-12T07:55:48.232Z,2.54
2023-03-12T07:58:16.610Z,2.23
2023-03-12T08:00:46.485Z,2.63
2023-03-12T08:03:14.851Z,2.73
2023-03-12T08:05:42.771Z,2.88
2023-03-12T08:08:11.069Z,2.91
2023-03-12T08:10:38.932Z,2.95
2023-03-12T08:13:06.759Z,2.95
2023-03-12T08:15:34.869Z,3.01
2023-03-12T08:18:04.305Z,2.98
2023-03-12T08:20:32.080Z,2.98
2023-03-12T08:22:59.725Z,3.15
2023-03-12T08:25:27.378Z,3.10
2023-03-12T08:27:55.491Z,3.13
2023-03-12T08:30:23.463Z,3.04
2023-03-12T08:32:51.261Z,3.17
2023-03-12T08:35:20.273Z,3.34
2023-03-12T08:37:47.990Z,3.39
2023-03-12T08:40:15.652Z,3.45
2023-03-12T08:42:44.920Z,3.02
2023-03-12T08:45:14.431Z,3.27
2023-03-12T08:47:43.373Z,3.36
2023-03-12T08:50:13.225Z,3.23
2023-03-12T08:52:42.400Z,3.55
2023-03-12T08:55:11.074Z,3.58
2023-03-12T08:57:39.787Z,3.79
2023-03-12T09:00:15.000Z,3.84
2023-03-12T09:02:44.623Z,3.90
2023-03-12T09:05:12.793Z,3.86
2023-03-12T09:07:42.570Z,3.65
2023-03-12T09:10:11.855Z,3.86
2023-03-12T09:12:39.553Z,4.03
2023-03-12T09:15:08.739Z,4.18
2023-03-12T09:17:36.397Z,4.35
2023-03-12T09:20:08.159Z,4.35
2023-03-12T09:22:37.037Z,4.38
2023-03-12T09:25:07.489Z,4.24
2023-03-12T09:27:37.775Z,4.15
2023-03-12T09:30:07.555Z,4.09
2023-03-12T09:32:35.390Z,4.18
2023-03-12T09:35:03.142Z,3.79
2023-03-12T09:37:32.237Z,4.32
2023-03-12T09:39:59.976Z,4.03
2023-03-12T09:42:35.594Z,3.99
2023-03-12T09:45:06.446Z,3.99
2023-03-12T09:47:38.384Z,3.55
2023-03-12T09:50:18.367Z,4.06
2023-03-12T09:52:52.024Z,4.10
2023-03-12T09:55:21.843Z,3.39
2023-03-12T09:57:52.783Z,4.31
2023-03-12T10:00:23.156Z,4.36
2023-03-12T10:03:18.404Z,4.35
2023-03-12T10:05:54.481Z,4.43
2023-03-12T10:08:31.195Z,4.27
2023-03-12T10:11:04.084Z,4.29
2023-03-12T10:13:44.763Z,4.38
2023-03-12T10:16:26.002Z,4.45
2023-03-12T10:19:20.437Z,4.38
2023-03-12T10:21:54.264Z,4.31
2023-03-12T10:24:37.903Z,4.19
2023-03-12T10:27:13.151Z,4.24
2023-03-12T10:29:44.980Z,4.32
2023-03-12T10:32:18.509Z,4.38
2023-03-12T10:34:48.640Z,4.44
2023-03-12T10:37:22.054Z,5.05
2023-03-12T10:39:50.558Z,5.15
2023-03-12T10:42:20.649Z,5.04
2023-03-12T10:44:53.539Z,5.63
2023-03-12T10:47:35.213Z,5.10
2023-03-12T10:50:18.073Z,5.75
2023-03-12T10:52:47.574Z,5.82
2023-03-12T10:55:23.073Z,5.64
2023-03-12T10:57:51.413Z,5.09
2023-03-12T11:00:23.321Z,4.84
2023-03-12T11:03:00.545Z,4.85
2023-03-12T11:05:31.170Z,4.80
2023-03-12T11:08:00.293Z,4.77
2023-03-12T11:10:41.660Z,5.00
2023-03-12T11:13:24.454Z,4.80
2023-03-12T11:15:54.506Z,5.02
2023-03-12T11:18:32.150Z,5.19
2023-03-12T11:21:17.844Z,5.00
2023-03-12T11:24:06.992Z,5.08
2023-03-12T11:26:40.674Z,5.15
2023-03-12T11:29:18.394Z,5.33
2023-03-12T11:31:57.434Z,5.46
2023-03-12T11:34:28.141Z,5.61
2023-03-12T11:37:06.001Z,5.74
2023-03-12T11:39:43.963Z,6.22
2023-03-12T11:42:25.226Z,6.57
2023-03-12T11:45:00.430Z,6.54
2023-03-12T11:47:40.717Z,6.49
2023-03-12T11:50:22.232Z,6.35
2023-03-12T11:53:07.146Z,6.31
2023-03-12T11:55:48.433Z,6.40
2023-03-12T11:58:33.218Z,6.60
2023-03-12T12:01:10.903Z,6.52
2023-03-12T12:04:14.130Z,6.71
2023-03-12T12:06:56.139Z,6.97
2023-03-12T12:09:36.057Z,7.34
2023-03-12T12:12:15.383Z,7.76
2023-03-12T12:14:57.052Z,7.83
2023-03-12T12:17:40.018Z,7.98
2023-03-12T12:20:22.074Z,8.20
2023-03-12T12:23:01.868Z,8.08
2023-03-12T12:25:43.895Z,8.56
2023-03-12T12:28:51.504Z,8.38
2023-03-12T12:31:35.630Z,8.41
2023-03-12T12:34:22.673Z,8.87
2023-03-12T12:36:56.838Z,9.29
2023-03-12T12:39:32.139Z,9.07
2023-03-12T12:42:05.668Z,9.18
2023-03-12T12:44:36.679Z,9.26
2023-03-12T12:47:07.973Z,9.77
2023-03-12T12:49:44.979Z,9.91
2023-03-12T12:52:19.954Z,9.77
2023-03-12T12:54:57.818Z,10.02
2023-03-12T12:57:33.899Z,10.42
2023-03-12T13:00:15.488Z,10.79
2023-03-12T13:02:46.753Z,10.92
2023-03-12T13:05:23.413Z,11.26
2023-03-12T13:07:52.433Z,10.68
2023-03-12T13:10:48.964Z,10.60
2023-03-12T13:13:27.390Z,10.16
2023-03-12T13:16:20.846Z,10.81
2023-03-12T13:18:58.186Z,11.27
2023-03-12T13:21:31.882Z,11.44
2023-03-12T13:24:12.370Z,11.67
2023-03-12T13:26:53.635Z,11.44
2023-03-12T13:29:24.652Z,11.11
2023-03-12T13:31:52.330Z,11.29
2023-03-12T13:34:56.974Z,11.59
2023-03-12T13:37:57.877Z,11.94
2023-03-12T13:40:56.495Z,11.88
2023-03-12T13:43:43.215Z,12.03
2023-03-12T13:46:28.693Z,12.22
2023-03-12T13:49:00.870Z,12.14
2023-03-12T13:51:29.205Z,12.26
2023-03-12T13:54:00.230Z,12.13
2023-03-12T13:56:31.669Z,12.32
2023-03-12T13:59:02.610Z,12.02
2023-03-12T14:01:35.911Z,12.50
2023-03-12T14:04:11.581Z,12.81
2023-03-12T14:06:57.518Z,13.36
2023-03-12T14:09:33.341Z,13.42
2023-03-12T14:12:07.416Z,13.46
2023-03-12T14:15:05.010Z,12.73
2023-03-12T14:17:35.501Z,12.41
2023-03-12T14:20:07.352Z,12.44
2023-03-12T14:22:38.346Z,12.36
2023-03-12T14:25:13.660Z,12.25
2023-03-12T14:27:47.191Z,12.53
2023-03-12T14:30:23.427Z,12.56
2023-03-12T14:32:56.002Z,12.77
2023-03-12T14:35:28.340Z,12.66
2023-03-12T14:38:01.951Z,12.68
2023-03-12T14:40:39.248Z,12.72
2023-03-12T14:43:23.289Z,12.63
2023-03-12T14:45:52.991Z,12.55
2023-03-12T14:48:22.687Z,12.53
2023-03-12T14:50:50.686Z,12.59
2023-03-12T14:53:24.414Z,12.71
2023-03-12T14:56:03.659Z,12.53
2023-03-12T14:58:34.878Z,12.18
2023-03-12T15:01:05.706Z,12.11
2023-03-12T15:03:41.581Z,11.97
2023-03-12T15:06:18.457Z,11.98
2023-03-12T15:08:46.877Z,11.98
2023-03-12T15:11:14.587Z,12.20
2023-03-12T15:13:43.655Z,12.29
2023-03-12T15:16:11.521Z,12.08
2023-03-12T15:18:39.503Z,12.26
2023-03-12T15:21:07.534Z,12.23
2023-03-12T15:23:38.913Z,12.40
2023-03-12T15:26:15.152Z,12.34
2023-03-12T15:28:44.771Z,12.28
2023-03-12T15:31:14.895Z,12.34
2023-03-12T15:33:43.590Z,12.26
2023-03-12T15:36:25.697Z,12.07
2023-03-12T15:38:56.410Z,12.00
2023-03-12T15:41:28.972Z,12.10
2023-03-12T15:44:00.562Z,12.04
2023-03-12T15:46:29.249Z,12.02
2023-03-12T15:49:00.182Z,12.05
2023-03-12T15:51:31.195Z,12.09
2023-03-12T15:54:03.843Z,12.02
2023-03-12T15:56:33.248Z,11.89
2023-03-12T15:59:05.459Z,11.90
2023-03-12T16:01:46.149Z,11.82
2023-03-12T16:04:14.415Z,11.81
2023-03-12T16:06:43.959Z,11.84
2023-03-12T16:09:17.193Z,11.84
2023-03-12T16:11:45.263Z,11.84
2023-03-12T16:14:18.505Z,11.93
2023-03-12T16:16:46.926Z,11.86
2023-03-12T16:19:15.674Z,11.88
2023-03-12T16:21:44.623Z,11.92
2023-03-12T16:24:12.791Z,11.71
2023-03-12T16:26:48.983Z,11.80
2023-03-12T16:29:19.857Z,11.70
2023-03-12T16:31:51.920Z,11.84
2023-03-12T16:34:19.625Z,11.84
2023-03-12T16:36:47.322Z,11.72
2023-03-12T16:39:15.869Z,11.87
2023-03-12T16:41:45.353Z,11.68
2023-03-12T16:44:18.303Z,11.72
2023-03-12T16:46:47.760Z,11.71
2023-03-12T16:49:16.566Z,11.73
2023-03-12T16:51:44.407Z,11.82
2023-03-12T16:54:12.627Z,11.69
2023-03-12T16:56:44.092Z,11.67
2023-03-12T16:59:20.157Z,11.70
2023-03-12T17:01:49.081Z,11.68
2023-03-12T17:04:16.775Z,11.74
2023-03-12T17:06:44.488Z,11.64
2023-03-12T17:09:12.259Z,11.60
2023-03-12T17:11:40.721Z,11.53
2023-03-12T17:14:17.783Z,11.59
2023-03-12T17:16:45.597Z,11.60
2023-03-12T17:19:14.706Z,11.56
2023-03-12T17:21:43.209Z,11.56
2023-03-12T17:24:13.767Z,11.73
2023-03-12T17:26:41.733Z,12.17
2023-03-12T17:29:09.432Z,12.19
2023-03-12T17:31:37.509Z,11.97
2023-03-12T17:34:05.507Z,11.97
2023-03-12T17:36:36.814Z,12.07
2023-03-12T17:39:04.694Z,12.34
2023-03-12T17:41:32.515Z,12.00
2023-03-12T17:44:02.057Z,11.59
2023-03-12T17:46:30.575Z,11.63
2023-03-12T17:48:58.407Z,11.49
2023-03-12T17:51:26.700Z,11.44
2023-03-12T17:53:56.045Z,11.45
2023-03-12T17:56:24.215Z,11.40
2023-03-12T17:58:51.941Z,11.24
2023-03-12T18:01:19.822Z,11.17
2023-03-12T18:03:47.848Z,11.11
2023-03-12T18:06:15.572Z,11.12
2023-03-12T18:08:43.284Z,11.05
2023-03-12T18:11:12.307Z,11.23
2023-03-12T18:13:40.997Z,11.12
2023-03-12T18:16:08.763Z,11.09
2023-03-12T18:18:37.238Z,11.02
2023-03-12T18:21:05.233Z,11.23
2023-03-12T18:23:33.108Z,11.21
2023-03-12T18:26:00.803Z,11.14
2023-03-12T18:28:29.827Z,11.18
2023-03-12T18:30:57.593Z,11.19
2023-03-12T18:33:25.688Z,11.17
2023-03-12T18:35:54.626Z,11.12
2023-03-12T18:38:22.418Z,11.16
2023-03-12T18:40:51.244Z,11.26
2023-03-12T18:43:20.810Z,11.32
2023-03-12T18:45:51.251Z,11.39
2023-03-12T18:48:19.022Z,11.35
2023-03-12T18:50:46.728Z,11.38
2023-03-12T18:53:14.410Z,11.30
2023-03-12T18:55:42.080Z,11.28
2023-03-12T18:58:09.731Z,11.31
2023-03-12T19:00:37.399Z,11.14
2023-03-12T19:03:06.450Z,11.10
2023-03-12T19:05:34.086Z,11.18
2023-03-12T19:08:01.761Z,11.28
2023-03-12T19:10:29.440Z,11.23
2023-03-12T19:12:57.040Z,11.26
2023-03-12T19:15:25.292Z,11.31
2023-03-12T19:17:53.942Z,11.26
2023-03-12T19:20:23.021Z,11.29
2023-03-12T19:22:50.700Z,11.17
2023-03-12T19:25:18.362Z,11.36
2023-03-12T19:27:45.996Z,11.39
2023-03-12T19:30:14.585Z,11.37
2023-03-12T19:32:44.531Z,11.49
2023-03-12T19:35:14.575Z,11.57
2023-03-12T19:37:43.960Z,11.45
2023-03-12T19:40:13.172Z,11.42
2023-03-12T19:42:40.901Z,11.42
2023-03-12T19:45:10.038Z,11.46
2023-03-12T19:47:37.692Z,11.39
2023-03-12T19:50:06.282Z,11.39
2023-03-12T19:52:33.967Z,11.51
2023-03-12T19:55:05.356Z,11.57
2023-03-12T19:57:33.807Z,11.43
2023-03-12T20:00:01.554Z,11.52
2023-03-12T20:02:32.193Z,11.61
2023-03-12T20:05:00.209Z,11.62
2023-03-12T20:07:27.904Z,11.58
2023-03-12T20:09:55.587Z,11.68
2023-03-12T20:12:24.837Z,11.58
2023-03-12T20:14:52.637Z,11.54
2023-03-12T20:17:20.394Z,11.60
2023-03-12T20:19:48.017Z,11.57
2023-03-12T20:22:15.798Z,11.51
2023-03-12T20:24:43.460Z,11.71
2023-03-12T20:27:11.256Z,11.63
2023-03-12T20:29:40.354Z,11.71
2023-03-12T20:32:08.074Z,11.63
2023-03-12T20:34:36.024Z,11.60
2023-03-12T20:37:03.859Z,11.62
2023-03-12T20:39:31.559Z,11.72
2023-03-12T20:41:59.215Z,11.77
2023-03-12T20:44:27.024Z,11.88
2023-03-12T20:46:57.242Z,11.73
2023-03-12T20:49:24.864Z,11.72
2023-03-12T20:51:52.472Z,11.74
2023-03-12T20:54:20.105Z,11.82
2023-03-12T20:56:47.730Z,11.64
2023-03-12T20:59:15.449Z,11.84
2023-03-12T21:01:43.173Z,11.69
2023-03-12T21:04:12.224Z,11.73
2023-03-12T21:06:39.828Z,11.78
2023-03-12T21:09:07.452Z,11.68
2023-03-12T21:11:35.605Z,11.76
2023-03-12T21:14:03.245Z,11.73
2023-03-12T21:16:30.948Z,11.65
2023-03-12T21:18:59.068Z,11.62
2023-03-12T21:21:28.769Z,11.68
2023-03-12T21:23:56.437Z,11.63
2023-03-12T21:26:24.110Z,11.79
2023-03-12T21:28:51.720Z,11.74
2023-03-12T21:31:19.392Z,11.71
2023-03-12T21:33:47.062Z,11.91
2023-03-12T21:36:15.763Z,11.61
2023-03-12T21:38:44.694Z,11.85
2023-03-12T21:41:14.440Z,11.85
2023-03-12T21:43:42.609Z,11.79
2023-03-12T21:46:12.455Z,11.80
2023-03-12T21:48:40.897Z,11.64
2023-03-12T21:51:11.516Z,11.52
2023-03-12T21:53:39.220Z,11.62
2023-03-12T21:56:09.304Z,11.41
2023-03-12T21:58:37.425Z,11.44
2023-03-12T22:01:08.098Z,11.42
2023-03-12T22:03:36.581Z,11.38
2023-03-12T22:06:04.726Z,11.35
2023-03-12T22:08:32.697Z,11.37
2023-03-12T22:11:00.448Z,11.44
2023-03-12T22:13:29.526Z,11.41
2023-03-12T22:15:59.014Z,11.49
2023-03-12T22:18:27.136Z,11.45
2023-03-12T22:20:56.348Z,11.36
2023-03-12T22:23:25.137Z,11.36
2023-03-12T22:25:52.835Z,11.48
2023-03-12T22:28:20.781Z,11.43
2023-03-12T22:30:49.785Z,11.28
2023-03-12T22:33:17.448Z,11.33
2023-03-12T22:35:45.791Z,11.29
2023-03-12T22:38:13.820Z,11.48
2023-03-12T22:40:42.370Z,11.40
2023-03-12T22:43:10.568Z,11.40
2023-03-12T22:45:38.219Z,11.31
2023-03-12T22:48:07.764Z,11.27
2023-03-12T22:50:35.623Z,11.50
2023-03-12T22:53:03.345Z,11.42
2023-03-12T22:55:31.096Z,11.22
2023-03-12T22:57:58.793Z,11.44
2023-03-12T23:00:27.919Z,11.50
2023-03-12T23:02:55.590Z,11.45
2023-03-12T23:05:24.643Z,11.52
2023-03-12T23:07:52.283Z,11.52
2023-03-12T23:10:20.145Z,11.15
2023-03-12T23:12:47.749Z,11.32
2023-03-12T23:15:15.385Z,11.21
2023-03-12T23:17:43.114Z,11.50
2023-03-12T23:20:13.385Z,11.39
2023-03-12T23:22:42.971Z,11.43
2023-03-12T23:25:10.607Z,11.45
2023-03-12T23:27:38.269Z,11.24
2023-03-12T23:30:06.850Z,11.34
2023-03-12T23:32:35.592Z,11.24
2023-03-12T23:35:03.253Z,11.22
2023-03-12T23:37:31.307Z,11.30
2023-03-12T23:40:00.352Z,11.38
2023-03-12T23:42:28.775Z,11.34
2023-03-12T23:44:56.400Z,11.13
2023-03-12T23:47:24.453Z,11.22
2023-03-12T23:49:52.119Z,11.22
2023-03-12T23:52:19.859Z,11.35
2023-03-12T23:54:47.727Z,11.33
2023-03-12T23:57:16.860Z,11.27
2023-03-12T23:59:44.702Z,11.22
